Time;durP1;ratioP1;P1;durP2;ratioP2;P2;SDS_P1;SDS_P2;PMS_P1;PMS_P2;Temp;Humidity;BMP_temperature;BMP_pressure;BME280_temperature;BME280_humidity;BME280_pressure;Samples;Min_cycle;Max_cycle;Signal;HPM_P1;HPM_P2
2023/04/03 00:01:04;;;;;;;2.73;1.37;;;-0.10;71.20;;;;;;5077757;28;20367;-76
2023/04/03 00:03:30;;;;;;;7.70;1.20;;;-0.10;71.20;;;;;;5083216;28;20533;-76
2023/04/03 00:05:56;;;;;;;2.83;1.20;;;-0.10;71.20;;;;;;5086203;28;20071;-77
2023/04/03 00:08:22;;;;;;;5.20;1.70;;;-0.10;71.10;;;;;;5078016;28;20047;-77
2023/04/03 00:10:48;;;;;;;3.60;1.40;;;-0.10;71.10;;;;;;5095135;28;20102;-76
2023/04/03 00:13:14;;;;;;;6.17;1.57;;;-0.10;71.10;;;;;;5076382;28;20504;-76
2023/04/03 00:15:40;;;;;;;3.00;1.43;;;-0.10;71.00;;;;;;5113112;28;20059;-77
2023/04/03 00:18:07;;;;;;;2.53;1.20;;;-0.20;70.90;;;;;;5082509;28;20051;-76
2023/04/03 00:20:33;;;;;;;3.60;1.50;;;-0.20;70.90;;;;;;5094769;28;20063;-76
2023/04/03 00:23:00;;;;;;;5.10;1.30;;;-0.30;71.00;;;;;;5060410;28;20443;-76
2023/04/03 00:25:26;;;;;;;4.67;1.23;;;-0.30;71.00;;;;;;5092762;28;20499;-76
2023/04/03 00:27:52;;;;;;;4.90;1.67;;;-0.30;71.10;;;;;;5077906;28;20055;-76
2023/04/03 00:30:20;;;;;;;4.23;1.30;;;-0.40;71.10;;;;;;5076920;28;20478;-76
2023/04/03 00:32:48;;;;;;;5.70;1.43;;;-0.40;71.10;;;;;;5104535;28;20044;-76
2023/04/03 00:35:15;;;;;;;4.70;1.40;;;-0.40;71.00;;;;;;5092045;28;20481;-76
2023/04/03 00:37:42;;;;;;;5.20;1.13;;;-0.50;71.00;;;;;;5061616;28;20074;-76
2023/04/03 00:40:09;;;;;;;6.13;1.20;;;-0.50;71.10;;;;;;5077457;28;20087;-76
2023/04/03 00:42:37;;;;;;;5.20;1.20;;;-0.50;71.10;;;;;;5092609;28;20100;-76
2023/04/03 00:45:03;;;;;;;2.70;1.10;;;-0.50;71.00;;;;;;5094467;28;20128;-76
2023/04/03 00:47:30;;;;;;;4.37;1.40;;;-0.60;71.10;;;;;;5060298;28;20571;-76
2023/04/03 00:49:57;;;;;;;3.30;1.33;;;-0.60;71.20;;;;;;5084706;28;20082;-76
2023/04/03 00:52:28;;;;;;;4.23;1.33;;;-0.60;71.20;;;;;;5078435;28;20083;-76
2023/04/03 00:54:59;;;;;;;3.25;1.20;;;-0.60;71.20;;;;;;5084036;28;20047;-76
2023/04/03 00:57:26;;;;;;;2.85;1.40;;;-0.60;71.30;;;;;;5060870;28;20375;-77
2023/04/03 00:59:56;;;;;;;6.10;1.37;;;-0.60;71.50;;;;;;5094256;28;20092;-76
2023/04/03 01:02:22;;;;;;;3.77;1.40;;;-0.60;71.40;;;;;;5090781;28;20051;-77
2023/04/03 01:04:48;;;;;;;7.53;1.80;;;-0.60;71.50;;;;;;5076668;28;20128;-76
2023/04/03 01:07:20;;;;;;;4.57;1.00;;;-0.60;71.40;;;;;;5070541;28;20044;-76
2023/04/03 01:09:48;;;;;;;5.77;1.40;;;-0.60;71.30;;;;;;5091220;28;20119;-76
2023/04/03 01:12:28;;;;;;;5.20;1.30;;;-0.60;71.30;;;;;;5110535;28;20043;-76
2023/04/03 01:14:59;;;;;;;4.53;1.23;;;-0.60;71.40;;;;;;5076772;28;20054;-76
2023/04/03 01:17:30;;;;;;;4.72;1.60;;;-0.70;71.40;;;;;;5079423;28;20508;-76
2023/04/03 01:20:20;;;;;;;4.65;1.08;;;-0.70;71.40;;;;;;5093728;28;20545;-76
2023/04/03 01:22:56;;;;;;;4.07;1.20;;;-0.70;71.50;;;;;;5074823;28;20138;-76
2023/04/03 01:25:22;;;;;;;3.43;1.43;;;-0.70;71.50;;;;;;5069711;28;20047;-76
2023/04/03 01:27:48;;;;;;;5.60;1.40;;;-0.70;71.50;;;;;;5064107;28;20101;-77
2023/04/03 01:30:18;;;;;;;3.60;1.40;;;-0.70;71.40;;;;;;5049495;28;20040;-76
2023/04/03 01:32:44;;;;;;;2.57;1.20;;;-0.70;71.50;;;;;;5074876;28;20052;-76
2023/04/03 01:35:10;;;;;;;7.17;1.43;;;-0.70;71.30;;;;;;5077208;28;20048;-76
2023/04/03 01:37:36;;;;;;;5.97;1.10;;;-0.70;71.30;;;;;;5037261;28;20048;-77
2023/04/03 01:40:03;;;;;;;4.27;1.47;;;-0.70;71.20;;;;;;5107959;28;20521;-76
2023/04/03 01:42:29;;;;;;;3.93;1.50;;;-0.70;71.20;;;;;;5072989;28;20398;-77
2023/04/03 01:44:55;;;;;;;5.73;1.47;;;-0.80;71.20;;;;;;5091608;28;20069;-76
2023/04/03 01:47:21;;;;;;;5.30;1.30;;;-0.80;71.20;;;;;;5040693;28;20402;-77
2023/04/03 01:49:47;;;;;;;5.70;1.50;;;-0.80;71.20;;;;;;5056245;28;20039;-76
2023/04/03 01:52:13;;;;;;;6.70;1.67;;;-0.80;71.20;;;;;;5084422;28;20051;-76
2023/04/03 01:54:38;;;;;;;4.60;1.57;;;-0.80;71.10;;;;;;5076428;28;20091;-76
2023/04/03 01:57:04;;;;;;;4.80;1.40;;;-0.80;71.10;;;;;;5076623;28;20054;-76
2023/04/03 01:59:30;;;;;;;5.90;1.60;;;-0.80;71.20;;;;;;5076163;28;20047;-76
2023/04/03 02:01:56;;;;;;;3.70;1.40;;;-0.80;71.10;;;;;;5059414;28;20055;-76
2023/04/03 02:04:22;;;;;;;4.03;1.60;;;-0.90;71.10;;;;;;5104789;28;20055;-77
2023/04/03 02:06:47;;;;;;;4.87;1.70;;;-0.90;71.20;;;;;;5077066;28;20601;-76
2023/04/03 02:09:13;;;;;;;5.20;1.70;;;-0.90;71.20;;;;;;5057882;28;20035;-76
2023/04/03 02:11:39;;;;;;;6.87;1.67;;;-0.90;71.20;;;;;;5092752;28;20048;-76
2023/04/03 02:14:05;;;;;;;3.77;1.10;;;-0.90;71.20;;;;;;5090335;28;20043;-76
2023/04/03 02:16:30;;;;;;;4.67;2.00;;;-1.00;71.20;;;;;;5078957;28;20498;-76
2023/04/03 02:18:56;;;;;;;4.07;1.40;;;-1.00;71.20;;;;;;5089265;28;20391;-76
2023/04/03 02:21:22;;;;;;;4.67;1.73;;;-1.00;71.30;;;;;;5071838;28;20565;-76
2023/04/03 02:23:48;;;;;;;5.63;1.50;;;-1.00;71.20;;;;;;5077654;28;20047;-76
2023/04/03 02:26:15;;;;;;;5.47;1.70;;;-1.00;71.20;;;;;;5094754;28;20047;-76
2023/04/03 02:28:42;;;;;;;8.43;1.83;;;-1.10;71.20;;;;;;5070084;28;20119;-76
2023/04/03 02:31:08;;;;;;;9.50;1.80;;;-1.10;71.20;;;;;;5055902;28;20055;-76
2023/04/03 02:33:36;;;;;;;3.40;1.70;;;-1.10;71.20;;;;;;5090957;28;20048;-76
2023/04/03 02:36:04;;;;;;;7.53;1.83;;;-1.10;71.20;;;;;;5075268;28;20545;-77
2023/04/03 02:38:30;;;;;;;5.70;1.60;;;-1.10;71.30;;;;;;5077007;28;20051;-75
2023/04/03 02:41:06;;;;;;;7.67;2.20;;;-1.20;71.40;;;;;;5075638;28;20055;-76
2023/04/03 02:43:32;;;;;;;5.33;1.87;;;-1.30;71.40;;;;;;5073910;28;20392;-76
2023/04/03 02:45:58;;;;;;;5.77;1.93;;;-1.30;71.50;;;;;;5091690;28;20058;-76
2023/04/03 02:48:24;;;;;;;7.03;1.90;;;-1.30;71.50;;;;;;5053386;28;20044;-76
2023/04/03 02:50:50;;;;;;;6.93;1.97;;;-1.30;71.40;;;;;;5059691;28;20051;-76
2023/04/03 02:53:16;;;;;;;6.97;2.20;;;-1.30;71.50;;;;;;5090015;28;20059;-76
2023/04/03 02:55:42;;;;;;;7.60;1.93;;;-1.30;71.50;;;;;;5058844;28;20058;-76
2023/04/03 02:58:08;;;;;;;8.07;2.30;;;-1.40;71.60;;;;;;5058368;28;20040;-76
2023/04/03 03:00:34;;;;;;;6.07;1.90;;;-1.50;71.60;;;;;;5075020;28;20054;-76
2023/04/03 03:02:59;;;;;;;8.17;2.17;;;-1.50;71.70;;;;;;5080053;28;20059;-76
2023/04/03 03:05:27;;;;;;;9.93;2.17;;;-1.50;71.70;;;;;;5064412;28;20043;-76
2023/04/03 03:07:53;;;;;;;5.40;1.93;;;-1.50;71.80;;;;;;5058028;28;20043;-76
2023/04/03 03:10:19;;;;;;;3.93;1.90;;;-1.50;71.90;;;;;;5090671;28;20119;-76
2023/04/03 03:12:45;;;;;;;8.00;2.30;;;-1.50;71.80;;;;;;5057060;28;20104;-76
2023/04/03 03:15:11;;;;;;;7.40;1.90;;;-1.50;71.90;;;;;;5054782;28;20051;-76
2023/04/03 03:17:38;;;;;;;10.53;2.63;;;-1.50;71.90;;;;;;5060377;28;20146;-76
2023/04/03 03:20:05;;;;;;;8.73;2.03;;;-1.50;71.90;;;;;;5057647;28;20079;-76
2023/04/03 03:22:31;;;;;;;7.23;2.13;;;-1.50;71.90;;;;;;5087554;28;20052;-76
2023/04/03 03:24:57;;;;;;;7.03;2.07;;;-1.50;71.80;;;;;;5059240;28;20051;-76
2023/04/03 03:27:23;;;;;;;8.30;2.03;;;-1.50;71.80;;;;;;5025914;28;20490;-76
2023/04/03 03:29:49;;;;;;;8.73;2.30;;;-1.50;71.90;;;;;;5061775;28;20039;-76
2023/04/03 03:32:15;;;;;;;8.57;2.03;;;-1.50;71.90;;;;;;5090643;28;20100;-76
2023/04/03 03:34:41;;;;;;;10.90;2.37;;;-1.50;72.00;;;;;;5059095;28;20054;-76
2023/04/03 03:37:06;;;;;;;8.90;2.10;;;-1.50;72.00;;;;;;5043359;28;20087;-76
2023/04/03 03:39:32;;;;;;;8.23;2.30;;;-1.50;72.00;;;;;;5041682;28;20040;-76
2023/04/03 03:41:58;;;;;;;6.80;2.57;;;-1.60;72.20;;;;;;5062157;28;20044;-77
2023/04/03 03:44:24;;;;;;;9.10;2.20;;;-1.50;72.20;;;;;;5075830;28;20067;-76
2023/04/03 03:46:49;;;;;;;7.97;2.50;;;-1.50;72.10;;;;;;5060570;28;20521;-76
2023/04/03 03:49:15;;;;;;;11.30;2.43;;;-1.50;72.10;;;;;;5073900;28;20091;-76
2023/04/03 03:51:41;;;;;;;11.73;2.67;;;-1.60;72.00;;;;;;5058025;28;20079;-77
2023/04/03 03:54:07;;;;;;;7.67;2.13;;;-1.60;72.30;;;;;;5076732;28;20083;-76
2023/04/03 03:56:33;;;;;;;9.13;2.40;;;-1.60;72.30;;;;;;5081060;28;20444;-76
2023/04/03 03:58:59;;;;;;;7.20;2.50;;;-1.60;72.10;;;;;;5092392;28;20071;-76
2023/04/03 04:01:25;;;;;;;8.83;2.20;;;-1.60;72.30;;;;;;5077694;28;20063;-76
2023/04/03 04:03:53;;;;;;;6.10;2.07;;;-1.70;72.20;;;;;;5073864;28;20055;-76
2023/04/03 04:06:19;;;;;;;7.60;2.33;;;-1.80;72.20;;;;;;5065591;28;20123;-76
2023/04/03 04:08:45;;;;;;;9.00;2.63;;;-1.80;72.10;;;;;;5051392;28;20569;-76
2023/04/03 04:11:11;;;;;;;6.53;2.20;;;-1.80;72.20;;;;;;5041449;28;20553;-76
2023/04/03 04:13:36;;;;;;;11.80;2.13;;;-1.90;72.10;;;;;;5060317;28;20039;-77
2023/04/03 04:16:02;;;;;;;12.27;2.83;;;-1.90;72.10;;;;;;5092251;28;20103;-77
2023/04/03 04:18:28;;;;;;;8.47;2.67;;;-2.00;72.20;;;;;;5058272;28;20087;-77
2023/04/03 04:20:54;;;;;;;9.13;2.43;;;-2.10;72.30;;;;;;5077979;28;20466;-76
2023/04/03 04:23:19;;;;;;;8.37;2.43;;;-2.10;72.30;;;;;;5042820;28;20043;-76
2023/04/03 04:25:47;;;;;;;8.77;3.47;;;-2.10;72.40;;;;;;5060082;28;20044;-76
2023/04/03 04:28:12;;;;;;;11.20;2.90;;;-2.10;72.60;;;;;;5041242;28;20132;-76
2023/04/03 04:30:38;;;;;;;17.77;3.20;;;-2.10;72.70;;;;;;5070915;28;20082;-77
2023/04/03 04:33:04;;;;;;;8.13;3.10;;;-2.00;72.70;;;;;;5088214;28;20059;-76
2023/04/03 04:35:30;;;;;;;7.03;2.97;;;-1.90;72.90;;;;;;5051306;28;20048;-76
2023/04/03 04:37:56;;;;;;;9.20;3.17;;;-1.90;72.80;;;;;;5045012;28;20177;-76
2023/04/03 04:40:22;;;;;;;16.57;3.43;;;-1.90;72.80;;;;;;5060142;28;20489;-77
2023/04/03 04:42:48;;;;;;;14.27;3.33;;;-1.80;72.80;;;;;;5076130;28;20048;-77
2023/04/03 04:45:14;;;;;;;11.13;3.23;;;-1.80;72.60;;;;;;5060462;28;20043;-76
2023/04/03 04:47:40;;;;;;;10.60;2.67;;;-1.90;72.50;;;;;;5042099;28;20421;-76
2023/04/03 04:50:07;;;;;;;10.00;3.40;;;-2.00;72.40;;;;;;5083437;28;20348;-77
2023/04/03 04:52:32;;;;;;;11.03;3.00;;;-2.00;72.50;;;;;;5052170;28;20054;-76
2023/04/03 04:54:58;;;;;;;10.23;3.30;;;-2.00;72.50;;;;;;5074145;28;20039;-77
2023/04/03 04:57:24;;;;;;;12.03;3.67;;;-2.10;72.50;;;;;;5032312;28;20139;-77
2023/04/03 04:59:50;;;;;;;14.27;3.53;;;-2.10;72.50;;;;;;5088203;28;20441;-77
2023/04/03 05:02:15;;;;;;;12.43;3.30;;;-2.10;72.50;;;;;;5086875;28;20126;-76
2023/04/03 05:04:41;;;;;;;12.50;3.63;;;-2.10;72.60;;;;;;5068744;28;20050;-76
2023/04/03 05:07:07;;;;;;;10.83;3.53;;;-2.10;72.60;;;;;;5028284;28;20075;-76
2023/04/03 05:09:33;;;;;;;9.87;3.23;;;-2.10;72.60;;;;;;5076122;28;20046;-76
2023/04/03 05:11:58;;;;;;;11.60;3.60;;;-2.10;72.60;;;;;;5093084;28;20406;-76
2023/04/03 05:14:24;;;;;;;13.13;3.27;;;-2.10;72.70;;;;;;5072776;28;20401;-76
2023/04/03 05:16:53;;;;;;;13.03;3.70;;;-2.10;72.70;;;;;;5058560;27;20047;-76
2023/04/03 05:19:22;;;;;;;12.43;3.63;;;-2.10;72.70;;;;;;5072075;28;20506;-76
2023/04/03 05:21:48;;;;;;;8.93;3.30;;;-2.10;72.80;;;;;;5075754;28;20040;-76
2023/04/03 05:24:15;;;;;;;11.07;3.43;;;-2.10;72.80;;;;;;5090920;28;20040;-76
2023/04/03 05:26:42;;;;;;;14.67;3.87;;;-2.10;72.80;;;;;;5071457;28;20040;-76
2023/04/03 05:29:08;;;;;;;14.97;3.63;;;-2.10;72.90;;;;;;5070552;28;20039;-76
2023/04/03 05:31:34;;;;;;;18.30;4.00;;;-2.10;72.90;;;;;;5057989;28;20509;-76
2023/04/03 05:33:59;;;;;;;9.17;3.23;;;-2.00;73.00;;;;;;5091859;28;20059;-76
2023/04/03 05:36:26;;;;;;;12.33;3.80;;;-1.90;73.00;;;;;;5080517;28;20035;-77
2023/04/03 05:38:52;;;;;;;13.77;3.73;;;-1.90;73.00;;;;;;5071048;28;20040;-76
2023/04/03 05:41:18;;;;;;;13.67;3.57;;;-1.90;73.00;;;;;;5074815;28;20051;-76
2023/04/03 05:43:44;;;;;;;11.13;3.97;;;-1.80;73.00;;;;;;5090335;28;20043;-76
2023/04/03 05:46:15;;;;;;;10.63;3.60;;;-1.80;73.10;;;;;;5079064;28;20126;-76
2023/04/03 05:48:41;;;;;;;;;;;-1.70;73.20;;;;;;5103620;28;20120;-76
2023/04/03 05:51:17;;;;;;;9.60;3.40;;;-1.60;73.50;;;;;;5088365;28;19920;-77
2023/04/03 05:53:45;;;;;;;13.77;3.63;;;-1.50;73.30;;;;;;5072919;28;20137;-76
2023/04/03 05:56:11;;;;;;;8.00;3.50;;;-1.40;73.30;;;;;;5077385;28;20479;-76
2023/04/03 05:58:36;;;;;;;11.90;4.07;;;-1.30;73.50;;;;;;5066637;28;20074;-76
2023/04/03 06:01:02;;;;;;;13.77;4.23;;;-1.10;73.70;;;;;;5088129;28;20485;-76
2023/04/03 06:03:28;;;;;;;9.33;3.57;;;-1.00;73.60;;;;;;5051375;28;20047;-76
2023/04/03 06:05:54;;;;;;;13.30;3.53;;;-0.70;73.60;;;;;;5089827;28;20047;-76
2023/04/03 06:08:20;;;;;;;14.57;3.77;;;-0.60;73.50;;;;;;5039240;28;20064;-76
2023/04/03 06:10:46;;;;;;;11.37;3.43;;;-0.40;73.30;;;;;;5057288;28;20551;-76
2023/04/03 06:13:12;;;;;;;12.97;3.40;;;-0.20;73.40;;;;;;5072511;28;20443;-76
2023/04/03 06:15:39;;;;;;;12.43;3.50;;;-0.10;73.00;;;;;;5091612;28;20352;-77
2023/04/03 06:18:05;;;;;;;6.70;2.90;;;0.00;72.90;;;;;;5062720;28;20104;-77
2023/04/03 06:20:31;;;;;;;8.60;3.00;;;0.30;72.90;;;;;;5072222;28;20052;-77
2023/04/03 06:22:56;;;;;;;12.23;2.93;;;0.50;72.60;;;;;;5073336;28;20043;-77
2023/04/03 06:25:22;;;;;;;11.37;3.13;;;0.60;72.30;;;;;;5068173;28;20056;-76
2023/04/03 06:27:48;;;;;;;9.90;3.10;;;0.80;72.00;;;;;;5080863;28;20055;-77
2023/04/03 06:30:14;;;;;;;12.73;3.53;;;0.80;71.70;;;;;;5100197;28;20473;-76
2023/04/03 06:32:40;;;;;;;9.40;3.00;;;0.80;71.80;;;;;;5085341;28;20060;-76
2023/04/03 06:35:06;;;;;;;9.10;3.00;;;0.80;71.80;;;;;;5088560;28;20449;-77
2023/04/03 06:37:32;;;;;;;7.63;3.43;;;0.90;72.10;;;;;;5051228;28;20104;-77
2023/04/03 06:40:00;;;;;;;8.60;3.40;;;1.00;71.90;;;;;;5089250;28;20072;-77
2023/04/03 06:42:26;;;;;;;8.10;3.33;;;1.00;72.20;;;;;;5067736;28;20044;-77
2023/04/03 06:44:51;;;;;;;9.17;3.03;;;1.10;72.00;;;;;;5107069;28;20233;-77
2023/04/03 06:47:17;;;;;;;9.97;3.47;;;1.20;72.20;;;;;;5055483;28;20123;-77
2023/04/03 06:49:44;;;;;;;10.80;3.30;;;1.40;72.30;;;;;;5084691;28;20046;-77
2023/04/03 06:52:11;;;;;;;7.07;3.20;;;1.40;72.10;;;;;;5076739;28;20056;-77
2023/04/03 06:54:38;;;;;;;10.27;2.73;;;1.50;72.30;;;;;;5077122;28;20437;-77
2023/04/03 06:57:04;;;;;;;10.83;3.20;;;1.60;72.30;;;;;;5068835;28;20055;-77
2023/04/03 06:59:30;;;;;;;14.73;3.80;;;1.70;71.60;;;;;;5053992;28;20433;-77
2023/04/03 07:01:55;;;;;;;9.67;3.40;;;1.90;71.50;;;;;;5072291;28;20452;-77
2023/04/03 07:04:21;;;;;;;8.67;3.40;;;2.00;71.60;;;;;;5087237;28;20047;-77
2023/04/03 07:06:48;;;;;;;12.37;3.30;;;2.20;70.60;;;;;;5045628;28;20446;-77
2023/04/03 07:09:14;;;;;;;8.83;3.10;;;2.40;70.70;;;;;;5065801;28;20477;-77
2023/04/03 07:11:40;;;;;;;8.87;3.43;;;2.70;70.00;;;;;;5054216;28;20380;-77
2023/04/03 07:14:07;;;;;;;10.37;3.50;;;2.90;69.80;;;;;;5086337;28;20044;-77
2023/04/03 07:16:34;;;;;;;9.00;3.43;;;3.00;69.60;;;;;;5074062;28;20130;-77
2023/04/03 07:19:01;;;;;;;8.83;2.93;;;3.00;69.60;;;;;;5068198;28;20092;-77
2023/04/03 07:21:27;;;;;;;9.07;3.30;;;2.90;69.90;;;;;;5069097;28;20567;-76
2023/04/03 07:23:54;;;;;;;9.03;3.07;;;2.90;69.80;;;;;;5085671;28;20051;-77
2023/04/03 07:26:20;;;;;;;7.53;2.90;;;2.90;68.70;;;;;;5061576;28;20142;-77
2023/04/03 07:28:48;;;;;;;7.30;2.77;;;2.80;68.80;;;;;;5040966;28;20055;-76
2023/04/03 07:31:15;;;;;;;10.10;3.47;;;2.80;68.80;;;;;;5087059;28;20444;-76
2023/04/03 07:33:41;;;;;;;10.77;3.10;;;2.80;69.00;;;;;;5050437;28;20490;-77
2023/04/03 07:36:09;;;;;;;10.00;3.20;;;3.00;69.30;;;;;;5063016;28;20063;-75
2023/04/03 07:38:35;;;;;;;10.63;3.07;;;3.10;69.00;;;;;;5061344;28;20094;-76
2023/04/03 07:41:02;;;;;;;6.90;2.53;;;3.30;68.60;;;;;;5035792;28;20044;-76
2023/04/03 07:43:28;;;;;;;7.40;2.63;;;3.40;67.90;;;;;;5039472;28;20134;-77
2023/04/03 07:45:54;;;;;;;6.80;2.40;;;3.50;67.20;;;;;;5052159;28;20062;-77
2023/04/03 07:48:22;;;;;;;9.47;2.60;;;3.60;66.60;;;;;;5042820;28;20081;-76
2023/04/03 07:50:48;;;;;;;7.80;2.17;;;3.80;66.60;;;;;;5080003;28;20098;-76
2023/04/03 07:53:15;;;;;;;8.23;2.30;;;3.90;66.00;;;;;;5051335;28;20582;-76
2023/04/03 07:55:44;;;;;;;7.73;2.27;;;4.30;65.80;;;;;;5054245;28;20062;-76
2023/04/03 07:58:15;;;;;;;5.87;2.13;;;4.40;64.50;;;;;;5054641;28;20051;-77
2023/04/03 08:00:41;;;;;;;6.18;1.98;;;4.50;65.00;;;;;;5054769;28;20405;-77
2023/04/03 08:03:11;;;;;;;6.67;2.00;;;4.40;64.10;;;;;;5032089;28;20141;-77
2023/04/03 08:05:48;;;;;;;6.50;2.20;;;4.50;64.00;;;;;;5038858;28;20072;-76
2023/04/03 08:08:17;;;;;;;6.70;2.30;;;4.80;62.90;;;;;;5052966;28;20050;-77
2023/04/03 08:10:42;;;;;;;6.90;2.13;;;4.90;63.20;;;;;;5059693;28;20075;-76
2023/04/03 08:13:09;;;;;;;7.40;1.93;;;4.60;62.90;;;;;;5052832;28;20062;-76
2023/04/03 08:15:35;;;;;;;6.43;1.90;;;4.50;63.70;;;;;;5083673;28;20107;-77
2023/04/03 08:18:01;;;;;;;4.83;2.00;;;5.10;63.40;;;;;;5063567;28;20056;-76
2023/04/03 08:20:28;;;;;;;5.27;1.63;;;5.90;62.30;;;;;;5081846;28;20094;-77
2023/04/03 08:22:54;;;;;;;9.07;2.30;;;6.50;61.50;;;;;;5057002;28;20079;-77
2023/04/03 08:25:20;;;;;;;7.13;2.27;;;6.40;61.10;;;;;;5074256;27;20605;-76
2023/04/03 08:27:46;;;;;;;8.83;2.07;;;6.20;61.60;;;;;;5028073;28;20300;-77
2023/04/03 08:30:12;;;;;;;6.03;2.10;;;6.60;61.90;;;;;;5057787;28;20459;-77
2023/04/03 08:32:38;;;;;;;6.20;2.10;;;7.50;61.10;;;;;;5082852;28;20473;-77
2023/04/03 08:35:06;;;;;;;8.23;2.20;;;7.80;60.10;;;;;;5061981;28;20395;-77
2023/04/03 08:37:34;;;;;;;6.87;1.90;;;7.30;59.70;;;;;;5060112;28;20529;-77
2023/04/03 08:40:00;;;;;;;8.30;2.00;;;6.90;60.20;;;;;;5073368;28;20354;-77
2023/04/03 08:42:32;;;;;;;6.13;2.10;;;6.50;60.30;;;;;;5023247;28;20048;-77
2023/04/03 08:45:06;;;;;;;5.47;2.20;;;6.60;60.50;;;;;;5086031;28;20109;-77
2023/04/03 08:47:50;;;;;;;6.57;2.20;;;7.00;60.10;;;;;;5042533;27;20051;-78
2023/04/03 08:50:21;;;;;;;5.47;1.70;;;7.40;58.40;;;;;;5074810;28;20040;-78
2023/04/03 08:52:57;;;;;;;6.00;1.70;;;7.30;59.60;;;;;;5061308;27;20102;-77
2023/04/03 08:55:27;;;;;;;6.10;1.90;;;7.20;58.20;;;;;;5084063;28;20055;-77
2023/04/03 08:58:05;;;;;;;4.73;2.03;;;7.00;59.00;;;;;;5074675;28;20516;-77
2023/04/03 09:00:53;;;;;;;3.43;1.63;;;6.60;58.00;;;;;;5081546;28;21260;-77
2023/04/03 09:03:21;;;;;;;7.43;2.17;;;6.60;58.20;;;;;;5076466;28;20052;-77
2023/04/03 09:05:52;;;;;;;4.77;1.37;;;6.50;59.30;;;;;;5053614;28;20059;-77
2023/04/03 09:08:29;;;;;;;7.65;2.15;;;6.50;59.50;;;;;;5071215;27;20044;-76
2023/04/03 09:11:28;;;;;;;7.30;2.27;;;6.40;59.40;;;;;;5071697;28;20051;-76
2023/04/03 09:14:02;;;;;;;6.87;1.83;;;6.30;58.70;;;;;;5047693;28;20056;-76
2023/04/03 09:16:53;;;;;;;5.97;1.50;;;6.50;59.50;;;;;;5078399;28;20785;-77
2023/04/03 09:19:38;;;;;;;6.23;2.00;;;6.60;57.70;;;;;;5089274;28;20078;-77
2023/04/03 09:22:25;;;;;;;5.93;1.90;;;6.40;58.10;;;;;;5088630;28;20149;-78
2023/04/03 09:25:13;;;;;;;5.17;1.70;;;6.10;57.90;;;;;;5071617;28;20142;-76
2023/04/03 09:27:39;;;;;;;4.57;1.30;;;6.10;56.80;;;;;;5054844;28;20059;-77
2023/04/03 09:30:06;;;;;;;5.97;1.90;;;6.20;58.50;;;;;;5072664;28;20443;-77
2023/04/03 09:32:34;;;;;;;4.67;1.57;;;6.50;58.60;;;;;;5060952;28;20048;-76
2023/04/03 09:35:31;;;;;;;5.43;2.00;;;6.80;58.30;;;;;;5071820;28;20081;-77
2023/04/03 09:38:00;;;;;;;4.50;1.60;;;6.90;57.30;;;;;;5046011;28;20070;-77
2023/04/03 09:40:26;;;;;;;3.37;1.20;;;6.80;57.60;;;;;;5072986;28;20485;-77
2023/04/03 09:42:53;;;;;;;5.37;1.30;;;6.70;57.20;;;;;;5071003;28;20047;-76
2023/04/03 09:45:33;;;;;;;5.57;0.90;;;6.60;56.80;;;;;;5067662;27;20154;-77
2023/04/03 09:48:06;;;;;;;4.47;1.23;;;6.60;55.90;;;;;;5064965;28;20220;-76
2023/04/03 09:50:34;;;;;;;4.43;0.90;;;6.50;56.00;;;;;;5072803;28;20100;-76
2023/04/03 09:53:06;;;;;;;3.63;0.67;;;6.60;55.60;;;;;;5088349;28;20158;-77
2023/04/03 09:55:43;;;;;;;2.77;0.70;;;6.50;54.20;;;;;;5088740;28;20063;-77
2023/04/03 09:58:26;;;;;;;1.10;0.47;;;6.50;53.90;;;;;;5053260;28;20514;-76
2023/04/03 10:01:01;;;;;;;4.27;1.10;;;6.50;52.40;;;;;;5072958;28;20039;-77
2023/04/03 10:03:34;;;;;;;4.80;0.90;;;6.60;53.50;;;;;;5069941;28;20051;-76
2023/04/03 10:06:00;;;;;;;4.27;1.03;;;6.70;54.20;;;;;;5071305;28;20384;-76
2023/04/03 10:08:33;;;;;;;3.33;1.30;;;6.80;53.80;;;;;;5054185;28;20599;-76
2023/04/03 10:11:26;;;;;;;3.07;1.00;;;7.10;53.90;;;;;;5052724;28;20063;-77
2023/04/03 10:13:53;;;;;;;3.37;0.87;;;8.00;51.00;;;;;;5064999;28;20567;-76
2023/04/03 10:16:27;;;;;;;3.53;1.07;;;8.70;52.60;;;;;;5078865;28;20055;-76
2023/04/03 10:19:02;;;;;;;5.07;2.40;;;9.00;52.70;;;;;;5069637;28;21660;-77
2023/04/03 10:21:55;;;;;;;3.00;1.27;;;9.20;52.20;;;;;;5086260;28;20519;-77
2023/04/03 10:24:32;;;;;;;2.10;1.13;;;9.80;50.40;;;;;;5054275;28;20536;-78
2023/04/03 10:27:27;;;;;;;2.63;0.70;;;10.30;51.40;;;;;;5071035;28;20116;-77
2023/04/03 10:30:11;;;;;;;1.90;0.77;;;10.30;49.50;;;;;;5024945;28;20043;-77
2023/04/03 10:32:56;;;;;;;5.70;2.90;;;10.20;52.00;;;;;;5084944;28;20182;-77
2023/04/03 10:35:43;;;;;;;3.63;1.77;;;10.10;49.00;;;;;;5093765;27;20044;-77
2023/04/03 10:38:33;;;;;;;3.00;0.77;;;10.30;50.30;;;;;;5054401;28;20057;-76
2023/04/03 10:41:12;;;;;;;8.70;3.97;;;10.20;49.30;;;;;;5087938;28;20055;-76
2023/04/03 10:43:58;;;;;;;2.93;0.80;;;10.10;48.90;;;;;;5086483;28;20082;-76
2023/04/03 10:46:39;;;;;;;4.90;2.00;;;10.20;47.90;;;;;;5055049;28;20044;-76
2023/04/03 10:49:20;;;;;;;2.00;0.63;;;10.20;48.50;;;;;;5077681;28;20043;-76
2023/04/03 10:51:51;;;;;;;2.17;0.52;;;10.00;48.80;;;;;;5069625;28;20059;-76
2023/04/03 10:54:25;;;;;;;3.67;1.80;;;10.00;50.00;;;;;;5089221;27;20552;-77
2023/04/03 10:57:00;;;;;;;6.90;2.80;;;9.90;48.80;;;;;;5053941;28;20523;-76
2023/04/03 10:59:46;;;;;;;8.23;3.77;;;9.80;49.30;;;;;;5068283;28;20062;-76
2023/04/03 11:02:28;;;;;;;11.13;5.60;;;9.70;49.00;;;;;;5084757;28;20399;-77
2023/04/03 11:04:57;;;;;;;;;;;10.10;49.40;;;;;;5065488;28;20400;-77
2023/04/03 11:07:36;;;;;;;2.40;0.90;;;10.40;46.20;;;;;;5041725;28;19934;-76
2023/04/03 11:10:13;;;;;;;4.53;1.80;;;10.50;49.10;;;;;;5073416;28;20082;-77
2023/04/03 11:13:01;;;;;;;3.07;0.60;;;10.60;49.00;;;;;;5087003;28;20054;-76
2023/04/03 11:15:31;;;;;;;2.87;0.50;;;11.00;48.60;;;;;;5050922;28;20485;-77
2023/04/03 11:18:24;;;;;;;2.30;0.60;;;10.60;48.50;;;;;;5060775;28;20047;-77
2023/04/03 11:21:09;;;;;;;1.90;0.70;;;10.10;49.00;;;;;;5073633;28;20087;-76
2023/04/03 11:23:39;;;;;;;2.20;0.70;;;10.10;47.50;;;;;;5069552;28;20048;-76
2023/04/03 11:26:21;;;;;;;4.40;0.60;;;10.10;49.70;;;;;;5075693;28;20047;-75
2023/04/03 11:29:00;;;;;;;3.47;0.97;;;10.50;48.50;;;;;;5054528;28;20082;-77
2023/04/03 11:31:56;;;;;;;4.00;1.00;;;11.00;48.70;;;;;;5053397;28;20096;-76
2023/04/03 11:34:41;;;;;;;2.23;0.60;;;11.50;47.30;;;;;;5067716;28;20164;-77
2023/04/03 11:37:32;;;;;;;6.53;0.70;;;12.50;48.00;;;;;;5071687;28;20059;-77
2023/04/03 11:40:09;;;;;;;2.42;0.95;;;12.80;45.70;;;;;;5070478;28;20092;-77
2023/04/03 11:42:38;;;;;;;1.98;0.68;;;12.60;47.70;;;;;;5068420;28;20059;-77
2023/04/03 11:45:25;;;;;;;2.50;0.70;;;12.30;48.00;;;;;;5070043;28;20050;-77
2023/04/03 11:47:56;;;;;;;2.85;0.80;;;11.70;44.80;;;;;;5075779;28;20305;-77
2023/04/03 11:50:33;;;;;;;1.85;0.50;;;11.20;47.80;;;;;;5070595;28;20116;-77
2023/04/03 11:53:20;;;;;;;2.85;0.70;;;11.10;48.10;;;;;;5072646;28;20097;-76
2023/04/03 11:55:49;;;;;;;4.75;0.90;;;11.00;48.00;;;;;;5073080;28;20058;-76
2023/04/03 11:58:30;;;;;;;4.15;0.70;;;11.00;48.70;;;;;;5063261;28;20884;-76
2023/04/03 12:01:03;;;;;;;1.75;0.55;;;11.50;48.10;;;;;;5086312;28;20570;-76
2023/04/03 12:03:30;;;;;;;1.80;0.63;;;12.00;47.30;;;;;;5072729;28;20079;-76
2023/04/03 12:06:05;;;;;;;1.65;0.70;;;11.90;48.00;;;;;;5073991;28;20433;-76
2023/04/03 12:08:40;;;;;;;2.63;0.75;;;11.70;48.20;;;;;;5060504;28;20061;-75
2023/04/03 12:11:08;;;;;;;2.45;0.80;;;11.60;47.80;;;;;;5082192;28;20071;-76
2023/04/03 12:13:38;;;;;;;1.52;0.63;;;11.40;48.30;;;;;;5089240;28;20055;-75
2023/04/03 12:16:20;;;;;;;1.58;0.55;;;11.00;48.40;;;;;;5068436;28;20078;-75
2023/04/03 12:18:48;;;;;;;4.60;0.70;;;10.70;47.80;;;;;;5085466;28;20098;-75
2023/04/03 12:21:18;;;;;;;2.20;0.63;;;10.40;48.80;;;;;;5091285;28;20670;-76
2023/04/03 12:24:03;;;;;;;2.10;0.70;;;10.50;49.00;;;;;;5090771;28;20485;-75
2023/04/03 12:26:37;;;;;;;3.53;0.63;;;10.60;47.80;;;;;;5067323;28;20276;-76
2023/04/03 12:29:20;;;;;;;2.53;1.07;;;10.60;48.30;;;;;;5086182;28;20056;-76
2023/04/03 12:32:07;;;;;;;2.00;0.63;;;10.50;48.00;;;;;;5071257;28;20557;-75
2023/04/03 12:34:39;;;;;;;2.20;0.50;;;10.70;47.20;;;;;;5090866;28;20093;-75
2023/04/03 12:37:17;;;;;;;;;;;10.90;48.40;;;;;;5041319;28;20139;-76
2023/04/03 12:39:54;;;;;;;3.93;0.67;;;11.10;47.20;;;;;;5049044;28;19934;-76
2023/04/03 12:42:39;;;;;;;1.83;0.50;;;11.40;48.00;;;;;;5086957;28;20869;-75
2023/04/03 12:45:15;;;;;;;2.43;0.67;;;11.30;48.00;;;;;;5072785;28;20850;-75
2023/04/03 12:47:43;;;;;;;6.17;0.80;;;11.00;47.80;;;;;;5057493;28;20449;-75
2023/04/03 12:50:26;;;;;;;3.33;0.83;;;10.70;48.70;;;;;;5078524;28;20713;-75
2023/04/03 12:53:01;;;;;;;4.27;0.90;;;10.30;47.30;;;;;;5070207;28;20057;-76
2023/04/03 12:55:27;;;;;;;1.90;0.43;;;10.00;49.20;;;;;;5091046;28;20044;-76
2023/04/03 12:57:53;;;;;;;2.40;0.43;;;9.60;48.80;;;;;;5063703;28;20512;-75
2023/04/03 13:00:20;;;;;;;5.57;0.70;;;9.40;49.10;;;;;;5091341;28;20055;-75
2023/04/03 13:02:46;;;;;;;1.73;0.50;;;9.30;49.50;;;;;;5071656;28;20063;-76
2023/04/03 13:05:19;;;;;;;3.80;0.73;;;9.20;49.70;;;;;;5089681;28;20052;-76